sensor_id;sensor_type;location;lat;lon;timestamp;P1;durP1;ratioP1;P2;durP2;ratioP2
20080;SDS011;10200;49.232;9.222;2024-02-15T00:00:39;9.17;;;5.13;;
20080;SDS011;10200;49.232;9.222;2024-02-15T00:03:05;7.43;;;5.10;;
20080;SDS011;10200;49.232;9.222;2024-02-15T00:05:38;7.77;;;5.50;;
20080;SDS011;10200;49.232;9.222;2024-02-15T00:08:04;7.40;;;4.53;;
20080;SDS011;10200;49.232;9.222;2024-02-15T00:10:31;8.23;;;5.83;;
20080;SDS011;10200;49.232;9.222;2024-02-15T00:12:57;9.00;;;6.30;;
20080;SDS011;10200;49.232;9.222;2024-02-15T00:15:23;8.30;;;6.13;;
20080;SDS011;10200;49.232;9.222;2024-02-15T00:17:49;7.90;;;5.43;;
20080;SDS011;10200;49.232;9.222;2024-02-15T00:20:15;6.57;;;4.90;;
20080;SDS011;10200;49.232;9.222;2024-02-15T00:22:42;8.93;;;5.30;;
20080;SDS011;10200;49.232;9.222;2024-02-15T00:25:08;8.47;;;5.97;;
20080;SDS011;10200;49.232;9.222;2024-02-15T00:27:35;6.97;;;4.60;;
20080;SDS011;10200;49.232;9.222;2024-02-15T00:30:02;7.37;;;4.80;;
20080;SDS011;10200;49.232;9.222;2024-02-15T00:32:28;8.03;;;5.47;;
20080;SDS011;10200;49.232;9.222;2024-02-15T00:34:54;7.47;;;4.93;;
20080;SDS011;10200;49.232;9.222;2024-02-15T00:37:20;5.60;;;4.33;;
20080;SDS011;10200;49.232;9.222;2024-02-15T00:39:47;5.93;;;4.47;;
20080;SDS011;10200;49.232;9.222;2024-02-15T00:42:13;6.70;;;5.23;;
20080;SDS011;10200;49.232;9.222;2024-02-15T00:44:40;7.47;;;4.70;;
20080;SDS011;10200;49.232;9.222;2024-02-15T00:47:06;7.57;;;5.37;;
20080;SDS011;10200;49.232;9.222;2024-02-15T00:49:32;8.73;;;6.13;;
20080;SDS011;10200;49.232;9.222;2024-02-15T00:51:58;7.93;;;6.03;;
20080;SDS011;10200;49.232;9.222;2024-02-15T00:54:24;7.63;;;5.23;;
20080;SDS011;10200;49.232;9.222;2024-02-15T00:56:50;7.70;;;5.50;;
20080;SDS011;10200;49.232;9.222;2024-02-15T00:59:16;8.17;;;6.13;;
20080;SDS011;10200;49.232;9.222;2024-02-15T01:01:43;7.97;;;6.30;;
20080;SDS011;10200;49.232;9.222;2024-02-15T01:04:10;9.80;;;6.40;;
20080;SDS011;10200;49.232;9.222;2024-02-15T01:06:35;9.23;;;6.07;;
20080;SDS011;10200;49.232;9.222;2024-02-15T01:09:01;8.00;;;5.50;;
20080;SDS011;10200;49.232;9.222;2024-02-15T01:11:29;17.93;;;7.13;;
20080;SDS011;10200;49.232;9.222;2024-02-15T01:13:57;7.43;;;5.63;;
20080;SDS011;10200;49.232;9.222;2024-02-15T01:16:23;8.33;;;5.77;;
20080;SDS011;10200;49.232;9.222;2024-02-15T01:18:49;5.63;;;5.03;;
20080;SDS011;10200;49.232;9.222;2024-02-15T01:21:15;8.17;;;5.10;;
20080;SDS011;10200;49.232;9.222;2024-02-15T01:23:42;7.93;;;5.20;;
20080;SDS011;10200;49.232;9.222;2024-02-15T01:26:07;8.13;;;4.40;;
20080;SDS011;10200;49.232;9.222;2024-02-15T01:28:33;7.67;;;5.10;;
20080;SDS011;10200;49.232;9.222;2024-02-15T01:30:59;10.20;;;5.80;;
20080;SDS011;10200;49.232;9.222;2024-02-15T01:33:24;6.93;;;4.73;;
20080;SDS011;10200;49.232;9.222;2024-02-15T01:35:50;8.37;;;4.97;;
20080;SDS011;10200;49.232;9.222;2024-02-15T01:38:16;6.93;;;4.77;;
20080;SDS011;10200;49.232;9.222;2024-02-15T01:40:41;8.73;;;4.97;;
20080;SDS011;10200;49.232;9.222;2024-02-15T01:43:07;9.27;;;4.97;;
20080;SDS011;10200;49.232;9.222;2024-02-15T01:45:33;7.40;;;5.27;;
20080;SDS011;10200;49.232;9.222;2024-02-15T01:47:58;5.13;;;4.20;;
20080;SDS011;10200;49.232;9.222;2024-02-15T01:50:24;10.13;;;4.90;;
20080;SDS011;10200;49.232;9.222;2024-02-15T01:52:52;7.87;;;5.50;;
20080;SDS011;10200;49.232;9.222;2024-02-15T01:55:19;7.30;;;4.93;;
20080;SDS011;10200;49.232;9.222;2024-02-15T01:57:45;6.60;;;4.60;;
20080;SDS011;10200;49.232;9.222;2024-02-15T02:00:13;12.60;;;5.10;;
20080;SDS011;10200;49.232;9.222;2024-02-15T02:02:41;7.17;;;4.37;;
20080;SDS011;10200;49.232;9.222;2024-02-15T02:05:08;9.53;;;4.17;;
20080;SDS011;10200;49.232;9.222;2024-02-15T02:07:33;6.60;;;4.50;;
20080;SDS011;10200;49.232;9.222;2024-02-15T02:09:59;6.53;;;4.53;;
20080;SDS011;10200;49.232;9.222;2024-02-15T02:12:25;7.23;;;4.67;;
20080;SDS011;10200;49.232;9.222;2024-02-15T02:14:53;8.80;;;4.90;;
20080;SDS011;10200;49.232;9.222;2024-02-15T02:17:19;8.13;;;4.20;;
20080;SDS011;10200;49.232;9.222;2024-02-15T02:19:46;6.87;;;4.50;;
20080;SDS011;10200;49.232;9.222;2024-02-15T02:22:15;4.97;;;4.37;;
20080;SDS011;10200;49.232;9.222;2024-02-15T02:24:59;5.97;;;4.37;;
20080;SDS011;10200;49.232;9.222;2024-02-15T02:27:35;7.87;;;5.00;;
20080;SDS011;10200;49.232;9.222;2024-02-15T02:30:02;5.80;;;4.70;;
20080;SDS011;10200;49.232;9.222;2024-02-15T02:32:31;6.93;;;5.07;;
20080;SDS011;10200;49.232;9.222;2024-02-15T02:34:59;8.57;;;5.10;;
20080;SDS011;10200;49.232;9.222;2024-02-15T02:37:25;7.80;;;5.43;;
20080;SDS011;10200;49.232;9.222;2024-02-15T02:39:51;11.13;;;4.87;;
20080;SDS011;10200;49.232;9.222;2024-02-15T02:42:17;8.00;;;4.70;;
20080;SDS011;10200;49.232;9.222;2024-02-15T02:44:42;8.00;;;4.70;;
20080;SDS011;10200;49.232;9.222;2024-02-15T02:47:08;8.40;;;4.73;;
20080;SDS011;10200;49.232;9.222;2024-02-15T02:49:37;8.53;;;4.90;;
20080;SDS011;10200;49.232;9.222;2024-02-15T02:52:03;8.57;;;4.63;;
20080;SDS011;10200;49.232;9.222;2024-02-15T02:54:29;6.10;;;4.80;;
20080;SDS011;10200;49.232;9.222;2024-02-15T02:56:55;6.43;;;4.77;;
20080;SDS011;10200;49.232;9.222;2024-02-15T02:59:20;7.13;;;4.80;;
20080;SDS011;10200;49.232;9.222;2024-02-15T03:01:46;8.10;;;5.30;;
20080;SDS011;10200;49.232;9.222;2024-02-15T03:04:14;9.67;;;4.93;;
20080;SDS011;10200;49.232;9.222;2024-02-15T03:06:41;7.67;;;4.60;;
20080;SDS011;10200;49.232;9.222;2024-02-15T03:09:08;7.67;;;5.00;;
20080;SDS011;10200;49.232;9.222;2024-02-15T03:11:34;4.83;;;3.93;;
20080;SDS011;10200;49.232;9.222;2024-02-15T03:14:01;8.17;;;5.13;;
20080;SDS011;10200;49.232;9.222;2024-02-15T03:16:29;6.43;;;5.03;;
20080;SDS011;10200;49.232;9.222;2024-02-15T03:18:58;9.43;;;5.97;;
20080;SDS011;10200;49.232;9.222;2024-02-15T03:21:27;6.30;;;5.17;;
20080;SDS011;10200;49.232;9.222;2024-02-15T03:23:53;6.80;;;4.97;;
20080;SDS011;10200;49.232;9.222;2024-02-15T03:26:24;7.37;;;5.67;;
20080;SDS011;10200;49.232;9.222;2024-02-15T03:28:56;8.30;;;5.53;;
20080;SDS011;10200;49.232;9.222;2024-02-15T03:31:22;8.57;;;5.43;;
20080;SDS011;10200;49.232;9.222;2024-02-15T03:33:47;9.13;;;6.30;;
20080;SDS011;10200;49.232;9.222;2024-02-15T03:36:15;7.13;;;5.30;;
20080;SDS011;10200;49.232;9.222;2024-02-15T03:38:43;6.37;;;5.10;;
20080;SDS011;10200;49.232;9.222;2024-02-15T03:41:10;8.33;;;5.20;;
20080;SDS011;10200;49.232;9.222;2024-02-15T03:43:35;6.70;;;4.60;;
20080;SDS011;10200;49.232;9.222;2024-02-15T03:46:01;7.40;;;5.43;;
20080;SDS011;10200;49.232;9.222;2024-02-15T03:48:26;7.77;;;5.07;;
20080;SDS011;10200;49.232;9.222;2024-02-15T03:50:52;6.40;;;4.93;;
20080;SDS011;10200;49.232;9.222;2024-02-15T03:53:18;11.10;;;5.33;;
20080;SDS011;10200;49.232;9.222;2024-02-15T03:55:43;9.17;;;5.30;;
20080;SDS011;10200;49.232;9.222;2024-02-15T03:58:09;6.97;;;5.00;;
20080;SDS011;10200;49.232;9.222;2024-02-15T04:00:35;9.20;;;5.03;;
20080;SDS011;10200;49.232;9.222;2024-02-15T04:03:00;8.73;;;5.70;;
20080;SDS011;10200;49.232;9.222;2024-02-15T04:05:26;7.10;;;5.57;;
20080;SDS011;10200;49.232;9.222;2024-02-15T04:07:52;8.30;;;4.80;;
20080;SDS011;10200;49.232;9.222;2024-02-15T04:10:18;6.83;;;4.53;;
20080;SDS011;10200;49.232;9.222;2024-02-15T04:12:44;7.40;;;5.57;;
20080;SDS011;10200;49.232;9.222;2024-02-15T04:15:09;10.00;;;4.40;;
20080;SDS011;10200;49.232;9.222;2024-02-15T04:17:41;7.97;;;5.17;;
20080;SDS011;10200;49.232;9.222;2024-02-15T04:20:09;8.50;;;5.73;;
20080;SDS011;10200;49.232;9.222;2024-02-15T04:22:37;7.83;;;5.30;;
20080;SDS011;10200;49.232;9.222;2024-02-15T04:25:06;9.20;;;5.37;;
20080;SDS011;10200;49.232;9.222;2024-02-15T04:27:35;6.60;;;4.23;;
20080;SDS011;10200;49.232;9.222;2024-02-15T04:30:01;5.03;;;4.53;;
20080;SDS011;10200;49.232;9.222;2024-02-15T04:32:28;8.03;;;4.83;;
20080;SDS011;10200;49.232;9.222;2024-02-15T04:34:58;5.77;;;4.90;;
20080;SDS011;10200;49.232;9.222;2024-02-15T04:37:23;6.73;;;4.97;;
20080;SDS011;10200;49.232;9.222;2024-02-15T04:39:53;6.73;;;4.97;;
20080;SDS011;10200;49.232;9.222;2024-02-15T04:42:19;6.40;;;5.03;;
20080;SDS011;10200;49.232;9.222;2024-02-15T04:44:45;8.97;;;4.77;;
20080;SDS011;10200;49.232;9.222;2024-02-15T04:47:10;7.97;;;4.83;;
20080;SDS011;10200;49.232;9.222;2024-02-15T04:49:36;6.90;;;4.90;;
20080;SDS011;10200;49.232;9.222;2024-02-15T04:52:05;5.67;;;4.80;;
20080;SDS011;10200;49.232;9.222;2024-02-15T04:54:31;6.27;;;4.60;;
20080;SDS011;10200;49.232;9.222;2024-02-15T04:56:57;5.93;;;4.57;;
20080;SDS011;10200;49.232;9.222;2024-02-15T04:59:23;9.23;;;5.30;;
20080;SDS011;10200;49.232;9.222;2024-02-15T05:01:52;8.77;;;5.17;;
20080;SDS011;10200;49.232;9.222;2024-02-15T05:04:20;5.93;;;5.23;;
20080;SDS011;10200;49.232;9.222;2024-02-15T05:06:45;7.93;;;5.73;;
20080;SDS011;10200;49.232;9.222;2024-02-15T05:09:11;7.97;;;4.60;;
20080;SDS011;10200;49.232;9.222;2024-02-15T05:11:37;7.50;;;5.27;;
20080;SDS011;10200;49.232;9.222;2024-02-15T05:14:06;6.37;;;4.90;;
20080;SDS011;10200;49.232;9.222;2024-02-15T05:16:35;8.70;;;4.20;;
20080;SDS011;10200;49.232;9.222;2024-02-15T05:19:07;6.83;;;4.83;;
20080;SDS011;10200;49.232;9.222;2024-02-15T05:21:36;5.83;;;4.53;;
20080;SDS011;10200;49.232;9.222;2024-02-15T05:24:03;8.60;;;5.60;;
20080;SDS011;10200;49.232;9.222;2024-02-15T05:26:29;7.60;;;4.83;;
20080;SDS011;10200;49.232;9.222;2024-02-15T05:28:55;6.50;;;4.77;;
20080;SDS011;10200;49.232;9.222;2024-02-15T05:31:21;5.50;;;4.60;;
20080;SDS011;10200;49.232;9.222;2024-02-15T05:33:50;7.40;;;4.47;;
20080;SDS011;10200;49.232;9.222;2024-02-15T05:36:17;6.93;;;4.67;;
20080;SDS011;10200;49.232;9.222;2024-02-15T05:38:46;9.47;;;4.83;;
20080;SDS011;10200;49.232;9.222;2024-02-15T05:41:13;6.37;;;4.87;;
20080;SDS011;10200;49.232;9.222;2024-02-15T05:43:39;5.60;;;4.83;;
20080;SDS011;10200;49.232;9.222;2024-02-15T05:46:06;6.23;;;4.20;;
20080;SDS011;10200;49.232;9.222;2024-02-15T05:48:33;6.10;;;4.80;;
20080;SDS011;10200;49.232;9.222;2024-02-15T05:51:05;6.50;;;4.20;;
20080;SDS011;10200;49.232;9.222;2024-02-15T05:53:32;6.47;;;4.40;;
20080;SDS011;10200;49.232;9.222;2024-02-15T05:56:00;5.97;;;4.43;;
20080;SDS011;10200;49.232;9.222;2024-02-15T05:58:35;7.40;;;5.07;;
20080;SDS011;10200;49.232;9.222;2024-02-15T06:01:02;8.57;;;5.00;;
20080;SDS011;10200;49.232;9.222;2024-02-15T06:03:33;8.87;;;4.50;;
20080;SDS011;10200;49.232;9.222;2024-02-15T06:06:03;6.83;;;5.17;;
20080;SDS011;10200;49.232;9.222;2024-02-15T06:08:36;6.73;;;5.00;;
20080;SDS011;10200;49.232;9.222;2024-02-15T06:11:03;7.90;;;4.97;;
20080;SDS011;10200;49.232;9.222;2024-02-15T06:13:30;7.23;;;4.97;;
20080;SDS011;10200;49.232;9.222;2024-02-15T06:15:56;8.10;;;5.03;;
20080;SDS011;10200;49.232;9.222;2024-02-15T06:18:29;6.20;;;4.80;;
20080;SDS011;10200;49.232;9.222;2024-02-15T06:20:56;5.70;;;4.87;;
20080;SDS011;10200;49.232;9.222;2024-02-15T06:23:22;6.17;;;4.43;;
20080;SDS011;10200;49.232;9.222;2024-02-15T06:25:50;7.57;;;5.30;;
20080;SDS011;10200;49.232;9.222;2024-02-15T06:28:18;10.50;;;5.60;;
20080;SDS011;10200;49.232;9.222;2024-02-15T06:31:03;8.53;;;6.27;;
20080;SDS011;10200;49.232;9.222;2024-02-15T06:33:47;11.90;;;8.60;;
20080;SDS011;10200;49.232;9.222;2024-02-15T06:36:31;11.63;;;8.90;;
20080;SDS011;10200;49.232;9.222;2024-02-15T06:39:15;16.13;;;9.63;;
20080;SDS011;10200;49.232;9.222;2024-02-15T06:42:00;13.90;;;9.77;;
20080;SDS011;10200;49.232;9.222;2024-02-15T06:44:26;15.00;;;9.17;;
20080;SDS011;10200;49.232;9.222;2024-02-15T06:46:52;12.37;;;8.10;;
20080;SDS011;10200;49.232;9.222;2024-02-15T06:49:18;11.00;;;7.47;;
20080;SDS011;10200;49.232;9.222;2024-02-15T06:51:46;11.07;;;6.63;;
20080;SDS011;10200;49.232;9.222;2024-02-15T06:54:13;8.23;;;6.40;;
20080;SDS011;10200;49.232;9.222;2024-02-15T06:56:38;11.10;;;6.83;;
20080;SDS011;10200;49.232;9.222;2024-02-15T06:59:04;10.00;;;7.33;;
20080;SDS011;10200;49.232;9.222;2024-02-15T07:01:30;10.20;;;7.73;;
20080;SDS011;10200;49.232;9.222;2024-02-15T07:03:59;9.60;;;7.27;;
20080;SDS011;10200;49.232;9.222;2024-02-15T07:06:24;7.70;;;5.43;;
20080;SDS011;10200;49.232;9.222;2024-02-15T07:08:52;6.83;;;5.57;;
20080;SDS011;10200;49.232;9.222;2024-02-15T07:11:20;10.40;;;6.47;;
20080;SDS011;10200;49.232;9.222;2024-02-15T07:13:46;7.67;;;5.67;;
20080;SDS011;10200;49.232;9.222;2024-02-15T07:16:12;7.83;;;4.87;;
20080;SDS011;10200;49.232;9.222;2024-02-15T07:18:38;9.23;;;5.30;;
20080;SDS011;10200;49.232;9.222;2024-02-15T07:21:04;7.43;;;5.00;;
20080;SDS011;10200;49.232;9.222;2024-02-15T07:23:36;7.97;;;5.13;;
20080;SDS011;10200;49.232;9.222;2024-02-15T07:26:01;6.30;;;4.57;;
20080;SDS011;10200;49.232;9.222;2024-02-15T07:28:28;7.90;;;4.83;;
20080;SDS011;10200;49.232;9.222;2024-02-15T07:30:55;6.47;;;4.90;;
20080;SDS011;10200;49.232;9.222;2024-02-15T07:33:22;10.03;;;6.00;;
20080;SDS011;10200;49.232;9.222;2024-02-15T07:35:48;9.60;;;6.33;;
20080;SDS011;10200;49.232;9.222;2024-02-15T07:38:18;11.17;;;7.63;;
20080;SDS011;10200;49.232;9.222;2024-02-15T07:40:44;11.57;;;7.80;;
20080;SDS011;10200;49.232;9.222;2024-02-15T07:43:09;12.20;;;7.60;;
20080;SDS011;10200;49.232;9.222;2024-02-15T07:45:35;15.63;;;9.67;;
20080;SDS011;10200;49.232;9.222;2024-02-15T07:48:02;15.93;;;8.87;;
20080;SDS011;10200;49.232;9.222;2024-02-15T07:50:31;16.03;;;9.37;;
20080;SDS011;10200;49.232;9.222;2024-02-15T07:52:56;19.27;;;9.70;;
20080;SDS011;10200;49.232;9.222;2024-02-15T07:55:22;18.20;;;9.63;;
20080;SDS011;10200;49.232;9.222;2024-02-15T07:57:49;18.50;;;10.10;;
20080;SDS011;10200;49.232;9.222;2024-02-15T08:00:15;16.93;;;9.93;;
20080;SDS011;10200;49.232;9.222;2024-02-15T08:02:45;18.40;;;9.63;;
20080;SDS011;10200;49.232;9.222;2024-02-15T08:05:11;12.57;;;8.00;;
20080;SDS011;10200;49.232;9.222;2024-02-15T08:07:42;13.33;;;8.30;;
20080;SDS011;10200;49.232;9.222;2024-02-15T08:10:12;9.60;;;6.63;;
20080;SDS011;10200;49.232;9.222;2024-02-15T08:12:39;11.73;;;6.80;;
20080;SDS011;10200;49.232;9.222;2024-02-15T08:15:07;9.83;;;6.00;;
20080;SDS011;10200;49.232;9.222;2024-02-15T08:20:15;10.47;;;5.70;;
20080;SDS011;10200;49.232;9.222;2024-02-15T08:22:46;13.27;;;5.30;;
20080;SDS011;10200;49.232;9.222;2024-02-15T08:25:12;12.70;;;5.53;;
20080;SDS011;10200;49.232;9.222;2024-02-15T08:27:40;14.83;;;5.97;;
20080;SDS011;10200;49.232;9.222;2024-02-15T08:30:10;25.73;;;6.00;;
20080;SDS011;10200;49.232;9.222;2024-02-15T08:32:40;13.40;;;5.33;;
20080;SDS011;10200;49.232;9.222;2024-02-15T08:35:11;9.30;;;4.30;;
20080;SDS011;10200;49.232;9.222;2024-02-15T08:37:37;9.13;;;4.73;;
20080;SDS011;10200;49.232;9.222;2024-02-15T08:40:10;15.00;;;4.93;;
20080;SDS011;10200;49.232;9.222;2024-02-15T08:42:40;8.10;;;5.00;;
20080;SDS011;10200;49.232;9.222;2024-02-15T08:45:06;13.30;;;6.13;;
20080;SDS011;10200;49.232;9.222;2024-02-15T08:47:41;12.30;;;4.80;;
20080;SDS011;10200;49.232;9.222;2024-02-15T08:50:08;13.87;;;4.77;;
20080;SDS011;10200;49.232;9.222;2024-02-15T08:52:35;18.33;;;4.80;;
20080;SDS011;10200;49.232;9.222;2024-02-15T08:55:08;12.27;;;3.97;;
20080;SDS011;10200;49.232;9.222;2024-02-15T08:57:35;12.10;;;5.10;;
20080;SDS011;10200;49.232;9.222;2024-02-15T09:00:03;9.17;;;4.73;;
20080;SDS011;10200;49.232;9.222;2024-02-15T09:02:38;8.53;;;3.90;;
20080;SDS011;10200;49.232;9.222;2024-02-15T09:05:14;8.17;;;4.03;;
20080;SDS011;10200;49.232;9.222;2024-02-15T09:07:40;9.80;;;3.80;;
20080;SDS011;10200;49.232;9.222;2024-02-15T09:10:07;7.20;;;4.43;;
20080;SDS011;10200;49.232;9.222;2024-02-15T09:12:35;9.87;;;4.43;;
20080;SDS011;10200;49.232;9.222;2024-02-15T09:15:03;7.83;;;4.30;;
20080;SDS011;10200;49.232;9.222;2024-02-15T09:17:29;6.27;;;3.53;;
20080;SDS011;10200;49.232;9.222;2024-02-15T09:19:57;5.70;;;3.43;;
20080;SDS011;10200;49.232;9.222;2024-02-15T09:22:23;5.83;;;3.73;;
20080;SDS011;10200;49.232;9.222;2024-02-15T09:24:49;8.60;;;2.90;;
20080;SDS011;10200;49.232;9.222;2024-02-15T09:27:15;5.63;;;3.10;;
20080;SDS011;10200;49.232;9.222;2024-02-15T09:29:40;4.97;;;2.90;;
20080;SDS011;10200;49.232;9.222;2024-02-15T09:32:07;5.20;;;3.10;;
20080;SDS011;10200;49.232;9.222;2024-02-15T09:34:33;3.83;;;3.00;;
20080;SDS011;10200;49.232;9.222;2024-02-15T09:36:58;5.27;;;2.77;;
20080;SDS011;10200;49.232;9.222;2024-02-15T09:39:24;7.07;;;3.07;;
20080;SDS011;10200;49.232;9.222;2024-02-15T09:41:49;7.57;;;3.27;;
20080;SDS011;10200;49.232;9.222;2024-02-15T09:44:20;6.40;;;3.50;;
20080;SDS011;10200;49.232;9.222;2024-02-15T09:46:46;5.20;;;2.90;;
20080;SDS011;10200;49.232;9.222;2024-02-15T09:49:17;5.93;;;2.73;;
20080;SDS011;10200;49.232;9.222;2024-02-15T09:51:43;6.37;;;2.60;;
20080;SDS011;10200;49.232;9.222;2024-02-15T09:54:11;7.07;;;2.87;;
20080;SDS011;10200;49.232;9.222;2024-02-15T09:56:38;3.20;;;2.33;;
20080;SDS011;10200;49.232;9.222;2024-02-15T09:59:06;6.90;;;2.70;;
20080;SDS011;10200;49.232;9.222;2024-02-15T10:01:32;3.70;;;2.60;;
20080;SDS011;10200;49.232;9.222;2024-02-15T10:04:00;5.57;;;2.58;;
20080;SDS011;10200;49.232;9.222;2024-02-15T10:06:31;6.70;;;2.80;;
20080;SDS011;10200;49.232;9.222;2024-02-15T10:09:22;5.50;;;2.70;;
20080;SDS011;10200;49.232;9.222;2024-02-15T10:11:54;5.75;;;2.75;;
20080;SDS011;10200;49.232;9.222;2024-02-15T10:14:21;3.60;;;2.13;;
20080;SDS011;10200;49.232;9.222;2024-02-15T10:16:47;4.63;;;2.10;;
20080;SDS011;10200;49.232;9.222;2024-02-15T10:19:13;4.95;;;1.77;;
20080;SDS011;10200;49.232;9.222;2024-02-15T10:21:40;8.10;;;2.73;;
20080;SDS011;10200;49.232;9.222;2024-02-15T10:24:06;3.23;;;1.33;;
20080;SDS011;10200;49.232;9.222;2024-02-15T10:26:33;4.03;;;1.50;;
20080;SDS011;10200;49.232;9.222;2024-02-15T10:29:09;4.00;;;1.40;;
20080;SDS011;10200;49.232;9.222;2024-02-15T10:31:39;3.57;;;1.80;;
20080;SDS011;10200;49.232;9.222;2024-02-15T10:34:16;5.55;;;1.60;;
20080;SDS011;10200;49.232;9.222;2024-02-15T10:36:44;3.05;;;1.30;;
20080;SDS011;10200;49.232;9.222;2024-02-15T10:39:10;3.13;;;1.40;;
20080;SDS011;10200;49.232;9.222;2024-02-15T10:41:45;2.42;;;1.30;;
20080;SDS011;10200;49.232;9.222;2024-02-15T10:44:18;6.97;;;1.67;;
20080;SDS011;10200;49.232;9.222;2024-02-15T10:46:45;3.90;;;1.90;;
20080;SDS011;10200;49.232;9.222;2024-02-15T10:49:15;4.30;;;1.67;;
20080;SDS011;10200;49.232;9.222;2024-02-15T10:51:45;3.85;;;1.40;;
20080;SDS011;10200;49.232;9.222;2024-02-15T10:55:05;2.72;;;1.30;;
20080;SDS011;10200;49.232;9.222;2024-02-15T10:57:12;3.33;;;1.33;;
20080;SDS011;10200;49.232;9.222;2024-02-15T10:59:54;2.67;;;1.40;;
20080;SDS011;10200;49.232;9.222;2024-02-15T11:04:57;4.15;;;1.40;;
20080;SDS011;10200;49.232;9.222;2024-02-15T11:07:28;4.40;;;1.45;;
20080;SDS011;10200;49.232;9.222;2024-02-15T11:09:55;2.57;;;0.90;;
20080;SDS011;10200;49.232;9.222;2024-02-15T11:12:22;3.00;;;1.20;;
20080;SDS011;10200;49.232;9.222;2024-02-15T11:14:48;3.87;;;0.80;;
20080;SDS011;10200;49.232;9.222;2024-02-15T11:23:04;3.75;;;1.70;;
20080;SDS011;10200;49.232;9.222;2024-02-15T11:25:33;2.38;;;1.05;;
20080;SDS011;10200;49.232;9.222;2024-02-15T11:30:53;3.50;;;0.93;;
20080;SDS011;10200;49.232;9.222;2024-02-15T11:33:34;1.33;;;0.75;;
20080;SDS011;10200;49.232;9.222;2024-02-15T11:36:09;2.15;;;0.80;;
20080;SDS011;10200;49.232;9.222;2024-02-15T11:38:36;2.92;;;1.00;;
20080;SDS011;10200;49.232;9.222;2024-02-15T11:41:06;1.33;;;0.60;;
20080;SDS011;10200;49.232;9.222;2024-02-15T11:46:13;2.08;;;0.70;;
20080;SDS011;10200;49.232;9.222;2024-02-15T11:48:39;1.52;;;0.80;;
20080;SDS011;10200;49.232;9.222;2024-02-15T11:51:05;2.83;;;0.80;;
20080;SDS011;10200;49.232;9.222;2024-02-15T11:53:32;3.60;;;1.00;;
20080;SDS011;10200;49.232;9.222;2024-02-15T11:56:01;3.03;;;0.70;;
20080;SDS011;10200;49.232;9.222;2024-02-15T11:58:29;1.42;;;0.70;;
20080;SDS011;10200;49.232;9.222;2024-02-15T12:01:07;3.97;;;1.20;;
20080;SDS011;10200;49.232;9.222;2024-02-15T12:03:53;2.72;;;0.98;;
20080;SDS011;10200;49.232;9.222;2024-02-15T12:06:58;2.05;;;0.77;;
20080;SDS011;10200;49.232;9.222;2024-02-15T12:09:42;1.35;;;0.93;;
20080;SDS011;10200;49.232;9.222;2024-02-15T12:12:27;1.17;;;0.63;;
20080;SDS011;10200;49.232;9.222;2024-02-15T12:15:11;4.03;;;0.88;;
20080;SDS011;10200;49.232;9.222;2024-02-15T12:17:55;1.85;;;1.00;;
20080;SDS011;10200;49.232;9.222;2024-02-15T12:20:57;3.53;;;1.13;;
20080;SDS011;10200;49.232;9.222;2024-02-15T12:23:22;2.90;;;1.10;;
20080;SDS011;10200;49.232;9.222;2024-02-15T12:25:52;2.53;;;0.80;;
20080;SDS011;10200;49.232;9.222;2024-02-15T12:28:18;2.97;;;0.93;;
20080;SDS011;10200;49.232;9.222;2024-02-15T12:30:43;2.17;;;1.20;;
20080;SDS011;10200;49.232;9.222;2024-02-15T12:33:09;1.25;;;0.88;;
20080;SDS011;10200;49.232;9.222;2024-02-15T12:35:44;3.97;;;0.90;;
20080;SDS011;10200;49.232;9.222;2024-02-15T12:38:09;1.25;;;0.60;;
20080;SDS011;10200;49.232;9.222;2024-02-15T12:40:40;0.95;;;0.70;;
20080;SDS011;10200;49.232;9.222;2024-02-15T12:43:06;2.45;;;0.80;;
20080;SDS011;10200;49.232;9.222;2024-02-15T12:45:37;1.25;;;0.60;;
20080;SDS011;10200;49.232;9.222;2024-02-15T12:48:05;2.10;;;0.70;;
20080;SDS011;10200;49.232;9.222;2024-02-15T12:50:31;2.80;;;1.50;;
20080;SDS011;10200;49.232;9.222;2024-02-15T12:52:58;1.25;;;0.60;;
20080;SDS011;10200;49.232;9.222;2024-02-15T12:57:59;2.95;;;0.77;;
20080;SDS011;10200;49.232;9.222;2024-02-15T13:00:30;1.80;;;0.70;;
20080;SDS011;10200;49.232;9.222;2024-02-15T13:02:59;1.80;;;0.77;;
20080;SDS011;10200;49.232;9.222;2024-02-15T13:05:28;0.98;;;0.57;;
20080;SDS011;10200;49.232;9.222;2024-02-15T13:07:54;2.83;;;1.00;;
20080;SDS011;10200;49.232;9.222;2024-02-15T13:10:20;2.22;;;0.90;;
20080;SDS011;10200;49.232;9.222;2024-02-15T13:12:47;4.88;;;1.13;;
20080;SDS011;10200;49.232;9.222;2024-02-15T13:15:14;3.72;;;1.00;;
20080;SDS011;10200;49.232;9.222;2024-02-15T13:17:44;1.65;;;0.90;;
20080;SDS011;10200;49.232;9.222;2024-02-15T13:20:11;1.95;;;0.70;;
20080;SDS011;10200;49.232;9.222;2024-02-15T13:22:39;1.58;;;0.50;;
20080;SDS011;10200;49.232;9.222;2024-02-15T13:25:05;4.47;;;0.90;;
20080;SDS011;10200;49.232;9.222;2024-02-15T13:27:33;1.67;;;0.70;;
20080;SDS011;10200;49.232;9.222;2024-02-15T13:30:00;5.25;;;1.13;;
20080;SDS011;10200;49.232;9.222;2024-02-15T13:32:25;2.10;;;1.00;;
20080;SDS011;10200;49.232;9.222;2024-02-15T13:34:51;3.35;;;0.45;;
20080;SDS011;10200;49.232;9.222;2024-02-15T13:37:19;1.98;;;0.75;;
20080;SDS011;10200;49.232;9.222;2024-02-15T13:39:49;1.00;;;0.60;;
20080;SDS011;10200;49.232;9.222;2024-02-15T13:42:15;1.98;;;0.77;;
20080;SDS011;10200;49.232;9.222;2024-02-15T13:44:42;3.28;;;1.10;;
20080;SDS011;10200;49.232;9.222;2024-02-15T13:47:09;5.13;;;0.73;;
20080;SDS011;10200;49.232;9.222;2024-02-15T13:49:36;3.75;;;0.85;;
20080;SDS011;10200;49.232;9.222;2024-02-15T13:52:02;0.57;;;0.50;;
20080;SDS011;10200;49.232;9.222;2024-02-15T13:54:32;2.05;;;0.68;;
20080;SDS011;10200;49.232;9.222;2024-02-15T13:56:59;3.70;;;0.85;;
20080;SDS011;10200;49.232;9.222;2024-02-15T13:59:26;2.80;;;0.80;;
20080;SDS011;10200;49.232;9.222;2024-02-15T14:01:53;3.50;;;1.13;;
20080;SDS011;10200;49.232;9.222;2024-02-15T14:04:18;2.60;;;0.90;;
20080;SDS011;10200;49.232;9.222;2024-02-15T14:06:44;2.05;;;0.80;;
20080;SDS011;10200;49.232;9.222;2024-02-15T14:09:10;1.15;;;0.80;;
20080;SDS011;10200;49.232;9.222;2024-02-15T14:11:37;2.25;;;0.52;;
20080;SDS011;10200;49.232;9.222;2024-02-15T14:14:03;3.08;;;0.95;;
20080;SDS011;10200;49.232;9.222;2024-02-15T14:16:30;3.42;;;0.80;;
20080;SDS011;10200;49.232;9.222;2024-02-15T14:18:55;1.55;;;0.70;;
20080;SDS011;10200;49.232;9.222;2024-02-15T14:21:21;3.30;;;1.27;;
20080;SDS011;10200;49.232;9.222;2024-02-15T14:23:47;1.23;;;0.85;;
20080;SDS011;10200;49.232;9.222;2024-02-15T14:26:12;0.73;;;0.73;;
20080;SDS011;10200;49.232;9.222;2024-02-15T14:28:38;2.50;;;1.15;;
20080;SDS011;10200;49.232;9.222;2024-02-15T14:31:06;2.92;;;1.02;;
20080;SDS011;10200;49.232;9.222;2024-02-15T14:33:51;1.17;;;0.88;;
20080;SDS011;10200;49.232;9.222;2024-02-15T14:36:17;2.22;;;0.80;;
20080;SDS011;10200;49.232;9.222;2024-02-15T14:38:43;1.38;;;0.82;;
20080;SDS011;10200;49.232;9.222;2024-02-15T14:41:09;4.65;;;1.08;;
20080;SDS011;10200;49.232;9.222;2024-02-15T14:43:36;2.13;;;0.80;;
20080;SDS011;10200;49.232;9.222;2024-02-15T14:46:02;3.72;;;0.55;;
20080;SDS011;10200;49.232;9.222;2024-02-15T14:48:30;1.02;;;0.60;;
20080;SDS011;10200;49.232;9.222;2024-02-15T14:50:56;1.67;;;0.80;;
20080;SDS011;10200;49.232;9.222;2024-02-15T14:53:22;1.63;;;0.70;;
20080;SDS011;10200;49.232;9.222;2024-02-15T14:55:52;1.98;;;0.77;;
20080;SDS011;10200;49.232;9.222;2024-02-15T14:58:19;1.88;;;0.90;;
20080;SDS011;10200;49.232;9.222;2024-02-15T15:00:46;1.75;;;0.80;;
20080;SDS011;10200;49.232;9.222;2024-02-15T15:03:12;1.95;;;1.40;;
20080;SDS011;10200;49.232;9.222;2024-02-15T15:05:38;3.28;;;0.90;;
20080;SDS011;10200;49.232;9.222;2024-02-15T15:08:22;1.10;;;0.57;;
20080;SDS011;10200;49.232;9.222;2024-02-15T15:11:08;3.97;;;0.90;;